createdAt,value
2018-02-13T00:00:08.892Z,1.46
2018-02-13T00:02:37.994Z,1.46
2018-02-13T00:05:07.113Z,1.66
2018-02-13T00:07:36.266Z,1.59
2018-02-13T00:10:05.401Z,1.60
2018-02-13T00:12:35.266Z,1.44
2018-02-13T00:15:04.412Z,1.61
2018-02-13T00:17:33.482Z,1.47
2018-02-13T00:20:02.578Z,1.55
2018-02-13T00:22:48.314Z,1.55
2018-02-13T00:25:18.186Z,1.49
2018-02-13T00:27:47.278Z,1.45
2018-02-13T00:30:16.371Z,1.47
2018-02-13T00:32:45.497Z,1.45
2018-02-13T00:35:14.589Z,1.46
2018-02-13T00:37:43.702Z,1.39
2018-02-13T00:40:12.785Z,1.22
2018-02-13T00:42:41.905Z,1.07
2018-02-13T00:45:11.777Z,1.11
2018-02-13T00:47:40.867Z,1.04
2018-02-13T00:50:09.983Z,1.08
2018-02-13T00:52:39.104Z,1.00
2018-02-13T00:55:08.973Z,1.05
2018-02-13T00:57:38.093Z,1.23
2018-02-13T01:00:07.216Z,1.26
2018-02-13T01:02:37.081Z,1.23
2018-02-13T01:05:06.199Z,1.12
2018-02-13T01:07:35.288Z,1.21
2018-02-13T01:10:04.404Z,1.06
2018-02-13T01:12:33.507Z,1.01
2018-02-13T01:15:02.626Z,0.99
2018-02-13T01:17:31.734Z,0.92
2018-02-13T01:20:00.842Z,0.84
2018-02-13T01:22:29.952Z,0.83
2018-02-13T01:24:59.061Z,0.76
2018-02-13T01:27:28.146Z,0.70
2018-02-13T01:29:57.266Z,0.71
2018-02-13T01:32:26.381Z,0.68
2018-02-13T01:34:55.491Z,0.66
2018-02-13T01:37:24.588Z,0.67
2018-02-13T01:39:53.697Z,0.68
2018-02-13T01:42:23.153Z,0.70
2018-02-13T01:44:52.240Z,0.74
2018-02-13T01:47:22.856Z,0.77
2018-02-13T01:49:51.950Z,0.74
2018-02-13T01:52:21.057Z,0.78
2018-02-13T01:54:50.162Z,0.78
2018-02-13T01:57:19.279Z,0.85
2018-02-13T01:59:48.358Z,1.01
2018-02-13T02:02:21.107Z,0.93
2018-02-13T02:04:50.209Z,0.91
2018-02-13T02:07:19.337Z,0.80
2018-02-13T02:09:48.425Z,0.62
2018-02-13T02:12:17.558Z,0.53
2018-02-13T02:14:47.406Z,0.69
2018-02-13T02:17:16.536Z,0.57
2018-02-13T02:19:45.633Z,0.51
2018-02-13T02:22:14.725Z,0.58
2018-02-13T02:24:43.852Z,0.58
2018-02-13T02:27:13.712Z,0.64
2018-02-13T02:29:42.818Z,0.66
2018-02-13T02:32:11.921Z,0.60
2018-02-13T02:34:41.029Z,0.70
2018-02-13T02:37:10.131Z,0.68
2018-02-13T02:39:40.024Z,0.67
2018-02-13T02:42:09.123Z,0.65
2018-02-13T02:44:38.226Z,0.56
2018-02-13T02:47:07.315Z,0.67
2018-02-13T02:49:36.417Z,0.64
2018-02-13T02:52:05.529Z,0.66
2018-02-13T02:54:35.407Z,0.54
2018-02-13T02:57:04.514Z,0.44
2018-02-13T02:59:33.598Z,0.53
2018-02-13T03:04:40.279Z,0.45
2018-02-13T03:07:09.396Z,0.42
2018-02-13T03:09:40.007Z,0.44
2018-02-13T03:12:09.152Z,0.37
2018-02-13T03:14:39.010Z,0.34
2018-02-13T03:17:08.135Z,0.29
2018-02-13T03:19:37.274Z,0.25
2018-02-13T03:22:07.160Z,0.23
2018-02-13T03:24:36.259Z,0.14
2018-02-13T03:27:05.341Z,0.08
2018-02-13T03:29:35.225Z,0.07
2018-02-13T03:32:04.338Z,0.04
2018-02-13T03:34:33.570Z,0.33
2018-02-13T03:37:04.562Z,0.41
2018-02-13T03:39:33.685Z,0.39
2018-02-13T03:42:02.793Z,0.42
2018-02-13T03:44:31.909Z,0.57
2018-02-13T03:47:01.774Z,0.46
2018-02-13T03:49:30.890Z,0.67
2018-02-13T03:51:59.987Z,0.54
2018-02-13T03:54:29.120Z,0.65
2018-02-13T03:56:58.969Z,0.60
2018-02-13T03:59:28.071Z,0.69
2018-02-13T04:01:57.180Z,0.79
2018-02-13T04:04:26.294Z,0.79
2018-02-13T04:06:55.417Z,0.86
2018-02-13T04:09:24.526Z,0.82
2018-02-13T04:11:53.637Z,0.80
2018-02-13T04:14:22.729Z,0.72
2018-02-13T04:16:51.845Z,0.78
2018-02-13T04:19:20.925Z,0.73
2018-02-13T04:21:50.038Z,0.78
2018-02-13T04:24:19.132Z,0.65
2018-02-13T04:26:48.253Z,0.68
2018-02-13T04:29:17.381Z,0.62
2018-02-13T04:31:47.256Z,0.62
2018-02-13T04:34:16.353Z,0.62
2018-02-13T04:36:45.474Z,0.67
2018-02-13T04:39:15.349Z,0.69
2018-02-13T04:41:44.479Z,0.69
2018-02-13T04:44:13.559Z,0.63
2018-02-13T04:46:42.675Z,0.73
2018-02-13T04:49:12.553Z,0.82
2018-02-13T04:51:41.646Z,0.74
2018-02-13T04:54:10.782Z,0.63
2018-02-13T04:56:39.864Z,0.53
2018-02-13T04:59:09.767Z,0.49
2018-02-13T05:01:38.874Z,0.46
2018-02-13T05:04:08.001Z,0.51
2018-02-13T05:06:38.526Z,0.56
2018-02-13T05:09:08.402Z,0.68
2018-02-13T05:11:37.501Z,0.91
2018-02-13T05:14:06.606Z,1.05
2018-02-13T05:16:37.221Z,1.07
2018-02-13T05:19:06.333Z,1.15
2018-02-13T05:21:35.460Z,1.06
2018-02-13T05:24:05.308Z,1.01
2018-02-13T05:26:34.398Z,1.01
2018-02-13T05:29:03.510Z,0.92
2018-02-13T05:31:32.613Z,0.84
2018-02-13T05:34:01.745Z,0.76
2018-02-13T05:36:31.634Z,0.85
2018-02-13T05:39:00.734Z,0.78
2018-02-13T05:41:29.820Z,0.75
2018-02-13T05:43:58.939Z,0.74
2018-02-13T05:46:28.027Z,0.69
2018-02-13T05:48:57.145Z,0.64
2018-02-13T05:51:27.009Z,0.64
2018-02-13T05:53:56.103Z,0.59
2018-02-13T05:56:26.007Z,0.59
2018-02-13T05:58:55.122Z,0.80
2018-02-13T06:01:24.221Z,0.93
2018-02-13T06:03:53.321Z,0.94
2018-02-13T06:06:22.421Z,0.97
2018-02-13T06:08:52.583Z,0.99
2018-02-13T06:11:22.451Z,0.99
2018-02-13T06:13:51.544Z,0.92
2018-02-13T06:16:20.681Z,0.97
2018-02-13T06:18:50.554Z,0.93
2018-02-13T06:21:19.670Z,0.91
2018-02-13T06:23:48.774Z,0.88
2018-02-13T06:26:18.645Z,0.88
2018-02-13T06:28:47.741Z,0.94
2018-02-13T06:31:16.867Z,0.89
2018-02-13T06:33:45.969Z,0.85
2018-02-13T06:36:15.069Z,0.84
2018-02-13T06:38:44.965Z,0.83
2018-02-13T06:41:14.046Z,0.82
2018-02-13T06:43:43.162Z,0.85
2018-02-13T06:46:12.274Z,0.79
2018-02-13T06:48:42.158Z,0.79
2018-02-13T06:51:11.260Z,0.78
2018-02-13T06:53:40.379Z,0.77
2018-02-13T06:56:09.481Z,0.78
2018-02-13T06:58:39.339Z,0.81
2018-02-13T07:01:08.431Z,0.88
2018-02-13T07:03:37.534Z,0.99
2018-02-13T07:06:06.644Z,1.04
2018-02-13T07:08:35.741Z,1.08
2018-02-13T07:11:04.845Z,1.13
2018-02-13T07:13:33.958Z,1.16
2018-02-13T07:16:03.069Z,1.23
2018-02-13T07:18:32.956Z,1.24
2018-02-13T07:21:02.076Z,1.28
2018-02-13T07:23:31.182Z,1.29
2018-02-13T07:26:01.053Z,1.37
2018-02-13T07:28:30.153Z,1.42
2018-02-13T07:30:59.262Z,1.43
2018-02-13T07:33:28.358Z,1.46
2018-02-13T07:35:57.505Z,1.50
2018-02-13T07:38:27.336Z,1.54
2018-02-13T07:40:56.450Z,1.54
2018-02-13T07:43:25.549Z,1.59
2018-02-13T07:45:54.650Z,1.76
2018-02-13T07:48:23.766Z,1.75
2018-02-13T07:50:52.860Z,1.81
2018-02-13T07:53:21.962Z,1.86
2018-02-13T07:55:51.818Z,1.94
2018-02-13T07:58:20.930Z,1.95
2018-02-13T08:00:50.034Z,1.96
2018-02-13T08:03:19.129Z,1.99
2018-02-13T08:05:48.266Z,2.00
2018-02-13T08:08:17.344Z,2.05
2018-02-13T08:10:46.477Z,2.07
2018-02-13T08:13:15.596Z,2.10
2018-02-13T08:15:44.708Z,2.18
2018-02-13T08:18:13.825Z,2.22
2018-02-13T08:20:42.920Z,2.21
2018-02-13T08:23:12.033Z,2.21
2018-02-13T08:25:41.920Z,2.22
2018-02-13T08:28:11.063Z,2.24
2018-02-13T08:30:40.929Z,2.28
2018-02-13T08:33:10.027Z,2.32
2018-02-13T08:35:39.117Z,2.39
2018-02-13T08:38:08.213Z,2.46
2018-02-13T08:40:37.327Z,2.49
2018-02-13T08:43:06.409Z,2.50
2018-02-13T08:45:35.531Z,2.58
2018-02-13T08:48:04.631Z,2.65
2018-02-13T08:50:34.514Z,2.71
2018-02-13T08:53:03.606Z,2.70
2018-02-13T08:55:32.716Z,2.83
2018-02-13T08:58:01.824Z,2.89
2018-02-13T09:00:30.906Z,2.95
2018-02-13T09:03:00.863Z,2.90
2018-02-13T09:05:30.721Z,2.82
2018-02-13T09:07:59.813Z,2.92
2018-02-13T09:10:28.937Z,2.89
2018-02-13T09:12:58.069Z,2.96
2018-02-13T09:15:27.178Z,3.00
2018-02-13T09:17:56.254Z,3.02
2018-02-13T09:20:25.417Z,3.10
2018-02-13T09:22:54.461Z,3.14
2018-02-13T09:25:23.585Z,3.12
2018-02-13T09:27:52.661Z,3.15
2018-02-13T09:30:21.813Z,3.37
2018-02-13T09:32:50.926Z,3.39
2018-02-13T09:35:20.777Z,3.45
2018-02-13T09:37:49.895Z,3.63
2018-02-13T09:40:18.966Z,3.55
2018-02-13T09:42:48.112Z,3.50
2018-02-13T09:45:17.233Z,3.61
2018-02-13T09:47:46.318Z,3.57
2018-02-13T09:50:15.405Z,3.62
2018-02-13T09:52:45.296Z,3.65
2018-02-13T09:55:14.402Z,3.86
2018-02-13T09:57:43.513Z,4.02
2018-02-13T10:00:13.384Z,4.11
2018-02-13T10:02:42.519Z,4.08
2018-02-13T10:05:11.591Z,4.04
2018-02-13T10:07:40.735Z,4.01
2018-02-13T10:10:10.596Z,4.02
2018-02-13T10:12:39.691Z,4.17
2018-02-13T10:15:08.794Z,4.20
2018-02-13T10:17:37.907Z,4.29
2018-02-13T10:20:07.010Z,4.34
2018-02-13T10:22:36.146Z,4.39
2018-02-13T10:25:05.296Z,4.50
2018-02-13T10:27:34.435Z,4.65
2018-02-13T10:30:03.533Z,4.75
2018-02-13T10:32:33.407Z,4.65
2018-02-13T10:35:02.508Z,4.71
2018-02-13T10:37:31.653Z,4.82
2018-02-13T10:40:00.757Z,4.82
2018-02-13T10:42:30.646Z,4.89
2018-02-13T10:44:59.761Z,5.09
2018-02-13T10:47:28.868Z,5.03
2018-02-13T10:49:57.982Z,5.02
2018-02-13T10:52:27.094Z,5.09
2018-02-13T10:54:56.984Z,5.27
2018-02-13T10:57:26.660Z,5.41
2018-02-13T10:59:55.760Z,5.45
2018-02-13T11:02:24.898Z,5.49
2018-02-13T11:04:54.038Z,5.50
2018-02-13T11:07:23.124Z,5.52
2018-02-13T11:09:52.269Z,5.68
2018-02-13T11:12:22.105Z,5.83
2018-02-13T11:14:51.231Z,5.92
2018-02-13T11:17:21.086Z,5.99
2018-02-13T11:19:50.226Z,6.02
2018-02-13T11:22:19.330Z,6.01
2018-02-13T11:24:49.203Z,5.92
2018-02-13T11:27:18.291Z,5.98
2018-02-13T11:29:47.413Z,5.99
2018-02-13T11:32:16.495Z,6.06
2018-02-13T11:34:45.595Z,6.08
2018-02-13T11:37:14.723Z,6.10
2018-02-13T11:39:43.806Z,6.13
2018-02-13T11:42:12.906Z,6.10
2018-02-13T11:44:42.020Z,6.11
2018-02-13T11:47:11.867Z,6.15
2018-02-13T11:49:40.998Z,6.21
2018-02-13T11:52:10.078Z,6.23
2018-02-13T11:54:39.218Z,6.28
2018-02-13T11:57:08.307Z,6.31
2018-02-13T11:59:37.420Z,6.32
2018-02-13T12:02:06.508Z,6.31
2018-02-13T12:04:35.626Z,6.43
2018-02-13T12:07:05.496Z,6.43
2018-02-13T12:09:34.594Z,6.47
2018-02-13T12:12:03.702Z,6.48
2018-02-13T12:14:32.799Z,6.49
2018-02-13T12:17:01.886Z,6.58
2018-02-13T12:19:30.996Z,6.65
2018-02-13T12:22:00.099Z,6.70
2018-02-13T12:24:29.197Z,6.73
2018-02-13T12:26:59.076Z,6.70
2018-02-13T12:29:28.189Z,6.68
2018-02-13T12:31:57.295Z,6.70
2018-02-13T12:34:26.406Z,6.66
2018-02-13T12:36:55.503Z,6.72
2018-02-13T12:39:25.386Z,6.77
2018-02-13T12:41:54.482Z,6.84
2018-02-13T12:44:23.590Z,6.85
2018-02-13T12:46:52.690Z,6.95
2018-02-13T12:49:22.571Z,6.92
2018-02-13T12:51:51.657Z,6.86
2018-02-13T12:54:20.780Z,6.91
2018-02-13T12:56:49.879Z,6.96
2018-02-13T12:59:18.983Z,6.96
2018-02-13T13:01:48.142Z,6.96
2018-02-13T13:04:17.969Z,7.00
2018-02-13T13:06:47.112Z,6.96
2018-02-13T13:09:16.981Z,7.01
2018-02-13T13:11:46.085Z,7.05
2018-02-13T13:14:15.192Z,7.00
2018-02-13T13:16:44.286Z,7.06
2018-02-13T13:19:13.395Z,7.12
2018-02-13T13:21:43.297Z,7.14
2018-02-13T13:24:12.393Z,7.22
2018-02-13T13:26:41.506Z,7.30
2018-02-13T13:29:10.598Z,7.45
2018-02-13T13:31:40.449Z,7.46
2018-02-13T13:34:09.558Z,7.46
2018-02-13T13:36:38.711Z,7.40
2018-02-13T13:39:07.774Z,7.30
2018-02-13T13:41:36.866Z,7.31
2018-02-13T13:44:05.971Z,7.21
2018-02-13T13:46:35.113Z,7.25
2018-02-13T13:49:04.231Z,7.40
2018-02-13T13:51:33.324Z,7.38
2018-02-13T13:54:02.421Z,7.39
2018-02-13T13:56:32.840Z,7.46
2018-02-13T13:59:01.956Z,7.48
2018-02-13T14:01:31.061Z,7.43
2018-02-13T14:04:00.149Z,7.43
2018-02-13T14:06:29.262Z,7.45
2018-02-13T14:08:58.341Z,7.49
2018-02-13T14:11:27.459Z,7.52
2018-02-13T14:13:56.584Z,7.57
2018-02-13T14:16:26.446Z,7.67
2018-02-13T14:18:55.566Z,7.71
2018-02-13T14:21:24.676Z,7.81
2018-02-13T14:23:54.552Z,7.87
2018-02-13T14:26:24.470Z,7.99
2018-02-13T14:28:53.622Z,8.10
2018-02-13T14:31:22.702Z,8.11
2018-02-13T14:33:52.589Z,8.24
2018-02-13T14:36:21.697Z,8.32
2018-02-13T14:38:50.816Z,8.45
2018-02-13T14:41:20.713Z,8.52
2018-02-13T14:43:49.807Z,8.72
2018-02-13T14:46:18.901Z,9.77
2018-02-13T14:48:48.013Z,13.52
2018-02-13T14:51:17.893Z,17.03
2018-02-13T14:53:47.016Z,18.79
2018-02-13T14:56:16.870Z,19.18
2018-02-13T14:58:45.985Z,19.53
2018-02-13T15:01:15.896Z,18.93
2018-02-13T15:03:45.026Z,20.06
2018-02-13T15:06:15.622Z,20.29
2018-02-13T15:08:44.750Z,19.86
2018-02-13T15:11:13.868Z,19.42
2018-02-13T15:13:43.010Z,20.20
2018-02-13T15:16:12.122Z,20.30
2018-02-13T15:18:43.203Z,21.05
2018-02-13T15:21:12.293Z,19.21
2018-02-13T15:23:42.223Z,19.87
2018-02-13T15:26:12.079Z,18.73
2018-02-13T15:28:41.227Z,15.75
2018-02-13T15:31:10.379Z,14.12
2018-02-13T15:33:40.230Z,12.59
2018-02-13T15:36:10.105Z,11.42
2018-02-13T15:38:39.974Z,10.52
2018-02-13T15:41:09.846Z,9.90
2018-02-13T15:43:38.961Z,9.60
2018-02-13T15:46:08.042Z,8.90
2018-02-13T15:48:37.133Z,8.78
2018-02-13T15:51:06.249Z,8.65
2018-02-13T15:53:35.339Z,8.39
2018-02-13T15:56:05.007Z,8.15
2018-02-13T15:58:34.164Z,8.24
2018-02-13T16:01:03.227Z,8.03
2018-02-13T16:03:32.317Z,7.97
2018-02-13T16:06:02.151Z,7.76
2018-02-13T16:08:31.254Z,7.55
2018-02-13T16:11:00.369Z,7.44
2018-02-13T16:13:29.482Z,7.29
2018-02-13T16:15:59.347Z,7.20
2018-02-13T16:18:28.437Z,7.09
2018-02-13T16:20:57.554Z,7.00
2018-02-13T16:23:26.649Z,6.93
2018-02-13T16:25:56.555Z,6.96
2018-02-13T16:28:27.260Z,6.85
2018-02-13T16:30:56.347Z,6.71
2018-02-13T16:33:25.459Z,6.52
2018-02-13T16:35:54.573Z,6.44
2018-02-13T16:38:23.714Z,6.39
2018-02-13T16:40:52.821Z,6.27
2018-02-13T16:43:22.710Z,6.17
2018-02-13T16:45:52.592Z,6.17
2018-02-13T16:48:21.703Z,6.09
2018-02-13T16:50:50.820Z,6.08
2018-02-13T16:53:19.920Z,5.96
2018-02-13T16:55:49.789Z,5.88
2018-02-13T16:58:18.910Z,5.80
2018-02-13T17:00:48.017Z,5.70
2018-02-13T17:03:17.141Z,5.67
2018-02-13T17:05:46.329Z,5.57
2018-02-13T17:08:16.164Z,5.57
2018-02-13T17:10:45.285Z,5.50
2018-02-13T17:13:14.381Z,5.39
2018-02-13T17:15:43.482Z,5.32
2018-02-13T17:18:12.629Z,5.25
2018-02-13T17:20:42.489Z,5.20
2018-02-13T17:23:11.626Z,5.08
2018-02-13T17:25:41.483Z,5.00
2018-02-13T17:28:11.360Z,4.88
2018-02-13T17:30:40.505Z,4.78
2018-02-13T17:33:09.629Z,4.72
2018-02-13T17:35:38.748Z,4.67
2018-02-13T17:38:07.864Z,4.56
2018-02-13T17:40:36.999Z,4.48
2018-02-13T17:43:06.237Z,4.49
2018-02-13T17:45:35.359Z,4.49
2018-02-13T17:48:04.444Z,4.41
2018-02-13T17:50:33.546Z,4.45
2018-02-13T17:53:02.688Z,4.43
2018-02-13T17:55:31.774Z,4.44
2018-02-13T17:58:00.869Z,4.41
2018-02-13T18:00:29.980Z,4.38
2018-02-13T18:02:59.095Z,4.27
2018-02-13T18:05:28.209Z,4.16
2018-02-13T18:07:58.111Z,4.16
2018-02-13T18:10:27.218Z,4.19
2018-02-13T18:12:56.364Z,4.12
2018-02-13T18:15:26.254Z,4.10
2018-02-13T18:17:55.371Z,4.03
2018-02-13T18:20:25.278Z,3.98
2018-02-13T18:22:54.389Z,3.98
2018-02-13T18:25:23.507Z,3.98
2018-02-13T18:27:52.629Z,3.97
2018-02-13T18:30:22.500Z,3.97
2018-02-13T18:32:51.633Z,3.94
2018-02-13T18:35:21.517Z,3.92
2018-02-13T18:37:50.642Z,3.96
2018-02-13T18:40:20.517Z,3.95
2018-02-13T18:42:49.649Z,3.90
2018-02-13T18:45:19.546Z,3.91
2018-02-13T18:47:48.694Z,3.87
2018-02-13T18:50:17.823Z,3.77
2018-02-13T18:55:16.087Z,3.76
2018-02-13T18:57:45.177Z,3.79
2018-02-13T19:00:14.343Z,3.73
2018-02-13T19:02:43.447Z,3.71
2018-02-13T19:05:13.319Z,3.73
2018-02-13T19:07:42.434Z,3.73
2018-02-13T19:10:12.351Z,3.69
2018-02-13T19:12:41.469Z,3.65
2018-02-13T19:15:11.355Z,3.62
2018-02-13T19:17:40.465Z,3.60
2018-02-13T19:20:10.352Z,3.51
2018-02-13T19:22:39.483Z,3.47
2018-02-13T19:25:09.373Z,3.49
2018-02-13T19:27:38.472Z,3.43
2018-02-13T19:30:07.602Z,3.41
2018-02-13T19:32:37.514Z,3.39
2018-02-13T19:35:07.396Z,3.29
2018-02-13T19:37:36.525Z,3.27
2018-02-13T19:40:05.652Z,3.31
2018-02-13T19:42:34.792Z,3.26
2018-02-13T19:45:03.907Z,3.23
2018-02-13T19:47:33.791Z,3.19
2018-02-13T19:50:02.930Z,3.19
2018-02-13T19:52:32.797Z,3.20
2018-02-13T19:55:01.950Z,3.19
2018-02-13T19:57:31.054Z,3.15
2018-02-13T20:00:00.211Z,3.06
2018-02-13T20:02:29.296Z,3.05
2018-02-13T20:04:58.451Z,3.00
2018-02-13T20:07:27.819Z,2.97
2018-02-13T20:09:57.727Z,2.94
2018-02-13T20:12:26.828Z,2.93
2018-02-13T20:14:56.722Z,2.93
2018-02-13T20:17:25.849Z,2.93
2018-02-13T20:19:55.745Z,2.93
2018-02-13T20:22:24.858Z,2.97
2018-02-13T20:24:54.739Z,2.96
2018-02-13T20:27:23.866Z,2.94
2018-02-13T20:29:53.734Z,2.90
2018-02-13T20:32:22.899Z,2.92
2018-02-13T20:34:52.012Z,2.94
2018-02-13T20:37:21.180Z,2.89
2018-02-13T20:39:51.059Z,2.84
2018-02-13T20:42:20.168Z,2.81
2018-02-13T20:44:50.067Z,2.83
2018-02-13T20:47:19.235Z,2.73
2018-02-13T20:49:48.343Z,2.71
2018-02-13T20:52:17.491Z,2.64
2018-02-13T20:54:46.643Z,2.58
2018-02-13T20:57:15.799Z,2.56
2018-02-13T20:59:44.905Z,2.54
2018-02-13T21:02:14.049Z,2.51
2018-02-13T21:04:43.191Z,2.52
2018-02-13T21:07:12.309Z,2.52
2018-02-13T21:09:41.457Z,2.48
2018-02-13T21:12:10.558Z,2.46
2018-02-13T21:14:39.686Z,2.40
2018-02-13T21:17:08.783Z,2.33
2018-02-13T21:19:37.921Z,2.30
2018-02-13T21:22:07.041Z,2.26
2018-02-13T21:24:37.236Z,2.23
2018-02-13T21:27:06.687Z,2.22
2018-02-13T21:29:35.805Z,2.25
2018-02-13T21:32:04.941Z,2.27
2018-02-13T21:34:34.059Z,2.28
2018-02-13T21:37:03.986Z,2.25
2018-02-13T21:39:33.114Z,2.28
2018-02-13T21:42:02.238Z,2.32
2018-02-13T21:44:31.350Z,2.28
2018-02-13T21:47:00.826Z,2.19
2018-02-13T21:49:29.956Z,2.14
2018-02-13T21:51:59.830Z,2.08
2018-02-13T21:54:28.988Z,2.08
2018-02-13T21:56:58.858Z,2.06
2018-02-13T21:59:27.966Z,2.04
2018-02-13T22:01:57.075Z,1.97
2018-02-13T22:04:26.166Z,1.94
2018-02-13T22:06:55.298Z,1.90
2018-02-13T22:09:24.395Z,1.88
2018-02-13T22:11:53.499Z,1.89
2018-02-13T22:14:22.582Z,1.84
2018-02-13T22:16:51.700Z,1.76
2018-02-13T22:19:21.567Z,1.70
2018-02-13T22:21:51.442Z,1.62
2018-02-13T22:24:20.553Z,1.54
2018-02-13T22:26:49.696Z,1.52
2018-02-13T22:29:18.794Z,1.38
2018-02-13T22:31:48.690Z,1.27
2018-02-13T22:36:53.117Z,1.16
2018-02-13T22:39:22.216Z,1.07
2018-02-13T22:41:52.091Z,1.00
2018-02-13T22:44:21.227Z,0.95
2018-02-13T22:46:50.335Z,0.83
2018-02-13T22:49:19.487Z,0.81
2018-02-13T22:51:48.599Z,0.70
2018-02-13T22:54:17.722Z,0.72
2018-02-13T22:56:47.590Z,0.68
2018-02-13T22:59:16.719Z,0.66
2018-02-13T23:01:46.611Z,0.63
2018-02-13T23:04:15.732Z,0.59
2018-02-13T23:06:45.612Z,0.65
2018-02-13T23:09:14.728Z,0.61
2018-02-13T23:11:43.850Z,0.52
2018-02-13T23:14:13.732Z,0.56
2018-02-13T23:16:44.356Z,0.56
2018-02-13T23:19:13.551Z,0.52
2018-02-13T23:21:43.433Z,0.47
2018-02-13T23:24:12.546Z,0.46
2018-02-13T23:26:41.681Z,0.40
2018-02-13T23:29:11.573Z,0.37
2018-02-13T23:31:40.678Z,0.33
2018-02-13T23:34:09.799Z,0.35
2018-02-13T23:36:39.679Z,0.46
2018-02-13T23:39:08.796Z,0.44
2018-02-13T23:41:37.911Z,0.42
2018-02-13T23:44:08.642Z,0.48
2018-02-13T23:46:39.592Z,0.48
2018-02-13T23:49:08.727Z,0.29
2018-02-13T23:51:37.839Z,0.37
2018-02-13T23:54:06.931Z,0.29
2018-02-13T23:56:36.050Z,0.20
2018-02-13T23:59:05.173Z,0.10
